Time;durP1;ratioP1;P1;durP2;ratioP2;P2;SDS_P1;SDS_P2;PMS_P1;PMS_P2;Temp;Humidity;BMP_temperature;BMP_pressure;BME280_temperature;BME280_humidity;BME280_pressure;Samples;Min_cycle;Max_cycle;Signal;HPM_P1;HPM_P2
2022/05/30 06:46:34;;;;;;;8.10;6.20;;;;;;;;;;5192262;27;20385;-54
2022/05/30 06:49:20;;;;;;;7.10;5.05;;;;;;;;;;5171112;27;20068;-51
2022/05/30 06:51:52;;;;;;;8.27;4.53;;;;;;;;;;5171105;27;20042;-50
2022/05/30 06:54:20;;;;;;;6.40;4.55;;;;;;;;;;5151914;27;20039;-50
2022/05/30 06:59:36;;;;;;;6.82;5.18;;;;;;;;;;5152307;27;20122;-51
2022/05/30 07:02:07;;;;;;;6.43;4.70;;;;;;;;;;5170784;27;20068;-53
2022/05/30 10:00:33;;;;;;;7.18;4.82;;;;;;;;;;5129633;27;20090;-53
2022/05/30 10:05:04;;;;;;;6.70;5.15;;;;;;;;;;5153705;27;20134;-48
2022/05/30 10:09:36;;;;;;;6.22;5.03;;;;;;;;;;5153467;27;20056;-52
2022/05/30 10:14:06;;;;;;;8.40;4.70;;;;;;;;;;5153521;27;20157;-50
2022/05/30 10:18:36;;;;;;;6.45;4.80;;;;;;;;;;5153412;27;20050;-50
2022/05/30 10:28:14;;;;;;;5.60;4.60;;;;;;;;;;5153193;27;20061;-50
2022/05/30 10:32:46;;;;;;;6.47;4.63;;;;;;;;;;5132708;27;20138;-52
2022/05/30 10:37:16;;;;;;;90.68;51.10;;;;;;;;;;5132879;27;20068;-49
2022/05/30 10:41:48;;;;;;;7.60;5.93;;;;;;;;;;5132884;27;20083;-50
2022/05/30 10:46:18;;;;;;;5.03;4.53;;;;;;;;;;5132273;28;20050;-50
2022/05/30 10:50:53;;;;;;;7.28;4.85;;;;;;;;;;5132220;28;20778;-51
2022/05/30 10:55:24;;;;;;;17.95;11.13;;;;;;;;;;5132364;28;20153;-48
2022/05/30 10:59:55;;;;;;;7.32;4.90;;;;;;;;;;5132033;28;20162;-50
2022/05/30 14:59:08;;;;;;;8.15;4.25;;;;;;;;;;5091113;28;20389;-50
2022/05/30 15:01:41;;;;;;;8.27;4.25;;;;;;;;;;5091101;28;20074;-51
2022/05/30 15:04:12;;;;;;;8.68;5.00;;;;;;;;;;5091149;28;20040;-49
2022/05/30 15:06:56;;;;;;;7.65;4.22;;;;;;;;;;5092135;28;20040;-52
2022/05/30 15:09:24;;;;;;;9.00;4.75;;;;;;;;;;5095376;28;20446;-50
2022/05/30 15:11:52;;;;;;;40.38;19.50;;;;;;;;;;5094869;28;20040;-51
2022/05/30 15:14:27;;;;;;;21.15;10.27;;;;;;;;;;5095216;28;20085;-50
2022/05/30 15:16:55;;;;;;;8.60;5.05;;;;;;;;;;5094889;28;20043;-52
2022/05/30 15:19:24;;;;;;;7.78;4.55;;;;;;;;;;5094951;28;20175;-48
2022/05/30 15:21:54;;;;;;;8.68;4.63;;;;;;;;;;5095244;28;20127;-46
2022/05/30 15:24:26;;;;;;;11.35;5.03;;;;;;;;;;5132914;27;20092;-48
2022/05/30 15:26:53;;;;;;;7.45;4.25;;;;;;;;;;5135778;27;20050;-52
2022/05/30 15:29:21;;;;;;;8.35;4.68;;;;;;;;;;5140358;27;20042;-52
2022/05/30 15:31:49;;;;;;;8.30;4.22;;;;;;;;;;5155919;27;20609;-51
2022/05/30 15:34:18;;;;;;;10.10;4.38;;;;;;;;;;5154590;27;20038;-48
2022/05/30 15:36:45;;;;;;;7.60;3.83;;;;;;;;;;5154827;27;20084;-50
2022/05/30 15:39:15;;;;;;;6.00;4.20;;;;;;;;;;5154608;27;20509;-51
2022/05/30 15:41:48;;;;;;;8.50;4.65;;;;;;;;;;5154624;27;20039;-48
2022/05/30 15:44:23;;;;;;;9.15;4.43;;;;;;;;;;5154557;27;20035;-49
2022/05/30 15:46:51;;;;;;;6.63;3.95;;;;;;;;;;5154448;27;20043;-51
2022/05/30 15:49:24;;;;;;;5.72;3.85;;;;;;;;;;5154800;27;20026;-49
2022/05/30 15:51:52;;;;;;;10.98;5.72;;;;;;;;;;5154604;27;20045;-48
2022/05/30 15:57:19;;;;;;;8.60;6.45;;;;;;;;;;5154556;27;20497;-48
2022/05/30 15:59:52;;;;;;;9.82;5.63;;;;;;;;;;5154376;27;20039;-47
2022/05/30 16:02:21;;;;;;;7.40;4.25;;;;;;;;;;5154357;27;20066;-51
2022/05/30 16:04:49;;;;;;;46.17;24.45;;;;;;;;;;5154158;27;20034;-48
2022/05/30 16:07:21;;;;;;;23.75;14.18;;;;;;;;;;5154082;27;20554;-52
2022/05/30 16:09:51;;;;;;;8.68;5.15;;;;;;;;;;5154018;27;20042;-49
2022/05/30 16:12:22;;;;;;;7.18;4.05;;;;;;;;;;5153630;27;20066;-51
2022/05/30 16:14:49;;;;;;;6.22;4.47;;;;;;;;;;5153013;27;20039;-49
2022/05/30 16:17:17;;;;;;;6.22;5.10;;;;;;;;;;5152348;27;20042;-48
2022/05/30 16:19:45;;;;;;;6.90;3.83;;;;;;;;;;5154062;27;20061;-52
2022/05/30 16:22:13;;;;;;;5.20;2.70;;;;;;;;;;5153549;27;20043;-51
2022/05/30 16:24:41;;;;;;;4.30;2.40;;;;;;;;;;5152222;27;20043;-48
2022/05/30 16:27:10;;;;;;;3.70;2.60;;;;;;;;;;5151963;27;20046;-51
2022/05/30 16:29:38;;;;;;;44.00;24.02;;;;;;;;;;5152392;27;20034;-51
2022/05/30 16:32:07;;;;;;;35.00;18.80;;;;;;;;;;5152304;27;20113;-51
2022/05/30 16:34:34;;;;;;;4.78;3.25;;;;;;;;;;5152225;27;20083;-47
2022/05/30 16:37:02;;;;;;;3.20;1.95;;;;;;;;;;5151875;27;20043;-49
2022/05/30 16:39:31;;;;;;;2.95;1.77;;;;;;;;;;5152064;27;20041;-48
2022/05/30 16:42:00;;;;;;;4.55;1.73;;;;;;;;;;5152123;27;20043;-48
2022/05/30 16:44:28;;;;;;;3.72;1.90;;;;;;;;;;5151993;27;20049;-46
2022/05/30 16:46:56;;;;;;;2.97;1.80;;;;;;;;;;5151861;27;20047;-50
2022/05/30 16:49:27;;;;;;;5.88;2.10;;;;;;;;;;5151781;27;20077;-49
2022/05/30 16:51:55;;;;;;;2.63;1.83;;;;;;;;;;5151788;27;20099;-50
2022/05/30 16:54:27;;;;;;;3.05;1.58;;;;;;;;;;5151419;27;20119;-52
2022/05/30 16:56:57;;;;;;;3.05;2.03;;;;;;;;;;5151563;27;20042;-48
2022/05/30 16:59:25;;;;;;;4.78;1.85;;;;;;;;;;5151262;27;20074;-50
2022/05/30 17:01:53;;;;;;;2.90;1.85;;;;;;;;;;5151386;27;20110;-46
2022/05/30 17:04:20;;;;;;;3.78;2.13;;;;;;;;;;5151235;27;20039;-50
2022/05/30 17:06:52;;;;;;;3.15;2.00;;;;;;;;;;5151194;27;20054;-46
2022/05/30 17:09:25;;;;;;;5.03;3.10;;;;;;;;;;5151163;27;20115;-47
2022/05/30 17:11:54;;;;;;;4.28;2.45;;;;;;;;;;5151190;27;20038;-50
2022/05/30 17:14:23;;;;;;;3.83;2.45;;;;;;;;;;5151414;27;20478;-50
2022/05/30 17:16:50;;;;;;;4.97;3.05;;;;;;;;;;5151141;27;20038;-51
2022/05/30 17:19:21;;;;;;;5.97;2.70;;;;;;;;;;5151653;27;20396;-48
2022/05/30 17:21:49;;;;;;;6.65;2.50;;;;;;;;;;5151414;27;20035;-49
2022/05/30 17:24:17;;;;;;;5.00;2.65;;;;;;;;;;5151050;27;20128;-48
2022/05/30 17:29:41;;;;;;;4.10;2.42;;;;;;;;;;5149023;27;20099;-48
2022/05/30 17:32:16;;;;;;;4.50;2.65;;;;;;;;;;5150011;27;20123;-50
2022/05/30 17:34:43;;;;;;;5.40;2.75;;;;;;;;;;5149930;27;20042;-46
2022/05/30 17:37:10;;;;;;;4.30;2.83;;;;;;;;;;5150153;27;20378;-47
2022/05/30 17:39:38;;;;;;;4.68;2.72;;;;;;;;;;5150078;27;20039;-49
2022/05/30 17:42:06;;;;;;;5.85;2.88;;;;;;;;;;5149724;27;20034;-51
2022/05/30 17:44:34;;;;;;;5.97;3.00;;;;;;;;;;5149272;27;20057;-47
2022/05/30 17:47:07;;;;;;;7.45;3.30;;;;;;;;;;5149572;27;20398;-50
2022/05/30 17:49:37;;;;;;;8.55;3.20;;;;;;;;;;5149511;27;20065;-49
2022/05/30 17:52:17;;;;;;;7.13;2.90;;;;;;;;;;5149040;27;20034;-47
2022/05/30 17:54:45;;;;;;;5.90;3.03;;;;;;;;;;5149005;27;20051;-49
2022/05/30 17:57:13;;;;;;;5.65;3.30;;;;;;;;;;5149038;27;20669;-48
2022/05/30 17:59:41;;;;;;;5.88;3.30;;;;;;;;;;5149026;27;20035;-45
2022/05/30 18:02:08;;;;;;;6.20;3.15;;;;;;;;;;5149013;27;20038;-49
2022/05/30 18:04:36;;;;;;;6.97;3.25;;;;;;;;;;5149111;27;20046;-51
2022/05/30 18:07:25;;;;;;;6.68;3.20;;;;;;;;;;5148846;27;20087;-46
2022/05/30 18:10:02;;;;;;;7.40;3.70;;;;;;;;;;5149448;27;20050;-48
2022/05/30 18:12:43;;;;;;;8.23;4.32;;;;;;;;;;5149377;27;20067;-46
2022/05/30 18:15:48;;;;;;;8.07;3.83;;;;;;;;;;5148876;27;20049;-49
2022/05/30 18:21:43;;;;;;;7.80;3.30;;;;;;;;;;5148671;27;20376;-46
2022/05/30 18:24:58;;;;;;;7.75;3.65;;;;;;;;;;5148458;27;20082;-50
2022/05/30 18:27:26;;;;;;;7.72;3.85;;;;;;;;;;5043600;28;20044;-49
2022/05/30 18:29:54;;;;;;;7.60;3.65;;;;;;;;;;5128687;27;20521;-50
2022/05/30 18:32:50;;;;;;;8.57;4.15;;;;;;;;;;5148634;27;20045;-48
2022/05/30 18:35:35;;;;;;;6.78;3.40;;;;;;;;;;5146239;27;20399;-50
2022/05/30 18:38:22;;;;;;;10.18;4.40;;;;;;;;;;5148934;27;20375;-51
2022/05/30 18:40:55;;;;;;;10.57;4.38;;;;;;;;;;5148565;27;20223;-46
2022/05/30 18:43:32;;;;;;;10.43;4.25;;;;;;;;;;5148200;27;20471;-47
2022/05/30 18:46:07;;;;;;;9.52;4.85;;;;;;;;;;5147925;27;20039;-49
2022/05/30 18:48:45;;;;;;;9.27;4.40;;;;;;;;;;5148383;27;20590;-46
2022/05/30 18:51:13;;;;;;;11.15;5.20;;;;;;;;;;5148848;27;20035;-46
2022/05/30 18:53:41;;;;;;;13.60;5.00;;;;;;;;;;5148531;27;20046;-51
2022/05/30 18:56:29;;;;;;;13.57;5.65;;;;;;;;;;5148282;27;20043;-51
2022/05/30 18:59:08;;;;;;;17.30;5.70;;;;;;;;;;5148402;27;20059;-51
2022/05/30 19:01:38;;;;;;;14.38;5.18;;;;;;;;;;5148723;27;20079;-50
2022/05/30 19:04:07;;;;;;;13.88;5.15;;;;;;;;;;5149246;27;20095;-49
2022/05/30 19:06:36;;;;;;;12.65;6.07;;;;;;;;;;5148700;27;20038;-47
2022/05/30 19:09:06;;;;;;;12.70;5.95;;;;;;;;;;5148910;27;20077;-51
2022/05/30 19:11:52;;;;;;;15.82;6.30;;;;;;;;;;5148322;27;20073;-50
2022/05/30 19:14:31;;;;;;;13.90;5.88;;;;;;;;;;5147980;27;20408;-48
2022/05/30 19:17:25;;;;;;;12.70;5.45;;;;;;;;;;5147096;27;20039;-48
2022/05/30 19:20:12;;;;;;;11.13;6.00;;;;;;;;;;5146620;27;20043;-46
2022/05/30 19:22:52;;;;;;;16.17;5.93;;;;;;;;;;5146782;27;20046;-48
2022/05/30 19:25:22;;;;;;;16.48;5.82;;;;;;;;;;5146565;27;20489;-49
2022/05/30 19:27:56;;;;;;;15.45;6.10;;;;;;;;;;5146730;27;20090;-47
2022/05/30 19:30:27;;;;;;;20.02;7.20;;;;;;;;;;5146708;27;20409;-46
2022/05/30 19:32:57;;;;;;;15.32;6.32;;;;;;;;;;5146617;27;20043;-49
2022/05/30 19:35:32;;;;;;;15.65;6.03;;;;;;;;;;5146696;27;20134;-47
2022/05/30 19:38:05;;;;;;;17.65;7.00;;;;;;;;;;5146915;27;20050;-49
2022/05/30 19:40:39;;;;;;;15.47;6.33;;;;;;;;;;5146964;27;20034;-48
2022/05/30 19:43:07;;;;;;;15.63;6.78;;;;;;;;;;5146977;27;21224;-49
2022/05/30 19:45:37;;;;;;;14.65;5.88;;;;;;;;;;5146578;27;20039;-49
2022/05/30 19:48:05;;;;;;;14.88;6.43;;;;;;;;;;5146877;27;20058;-47
2022/05/30 19:50:33;;;;;;;15.43;7.47;;;;;;;;;;5146497;27;20139;-49
2022/05/30 19:53:01;;;;;;;17.83;7.20;;;;;;;;;;5148411;27;20103;-51
2022/05/30 19:55:30;;;;;;;15.88;6.95;;;;;;;;;;5150519;27;20038;-50
2022/05/30 19:57:58;;;;;;;21.50;7.07;;;;;;;;;;5150195;27;20085;-48
2022/05/30 20:00:26;;;;;;;15.32;6.78;;;;;;;;;;5150299;27;20104;-50
2022/05/30 20:02:54;;;;;;;13.82;6.85;;;;;;;;;;5150043;27;20038;-47
2022/05/30 20:05:23;;;;;;;14.02;6.78;;;;;;;;;;5150246;27;20043;-51
2022/05/30 20:07:51;;;;;;;18.80;7.25;;;;;;;;;;5149919;27;20031;-53
2022/05/30 20:10:20;;;;;;;17.67;7.28;;;;;;;;;;5149789;27;20110;-49
2022/05/30 20:12:48;;;;;;;17.30;7.07;;;;;;;;;;5150295;27;20077;-47
2022/05/30 20:15:16;;;;;;;15.60;7.03;;;;;;;;;;5150228;27;20566;-48
2022/05/30 20:17:43;;;;;;;15.48;7.28;;;;;;;;;;5150439;27;20066;-47
2022/05/30 20:20:14;;;;;;;13.45;6.47;;;;;;;;;;5149717;27;20039;-52
2022/05/30 20:22:42;;;;;;;14.93;6.72;;;;;;;;;;5149533;27;20130;-51
2022/05/30 20:25:11;;;;;;;15.77;7.40;;;;;;;;;;5149853;27;20074;-46
2022/05/30 20:27:38;;;;;;;16.15;6.65;;;;;;;;;;5149655;27;20077;-50
2022/05/30 20:30:07;;;;;;;19.98;7.53;;;;;;;;;;5149718;27;20041;-51
2022/05/30 20:32:35;;;;;;;15.63;6.38;;;;;;;;;;5149674;27;20039;-48
2022/05/30 20:35:04;;;;;;;12.40;6.45;;;;;;;;;;5149480;27;20043;-52
2022/05/30 20:37:32;;;;;;;15.65;6.72;;;;;;;;;;5149796;27;20039;-51
2022/05/30 20:39:59;;;;;;;21.92;7.85;;;;;;;;;;5149544;27;20038;-49
2022/05/30 20:45:19;;;;;;;15.95;7.35;;;;;;;;;;5149566;27;20042;-48
2022/05/30 20:47:48;;;;;;;15.63;7.45;;;;;;;;;;5149735;27;20390;-50
2022/05/30 20:50:21;;;;;;;18.52;8.23;;;;;;;;;;5149585;27;20577;-46
2022/05/30 20:52:48;;;;;;;18.98;9.18;;;;;;;;;;5149374;27;20031;-49
2022/05/30 20:55:18;;;;;;;18.20;7.80;;;;;;;;;;5149662;27;20528;-50
2022/05/30 20:57:45;;;;;;;17.30;7.78;;;;;;;;;;5149525;27;20074;-48
2022/05/30 21:00:16;;;;;;;16.67;7.97;;;;;;;;;;5149576;27;20118;-54
2022/05/30 21:02:43;;;;;;;13.45;7.85;;;;;;;;;;5149547;27;20066;-52
2022/05/30 21:05:12;;;;;;;18.83;7.60;;;;;;;;;;5149089;27;20061;-50
2022/05/30 21:07:44;;;;;;;15.02;8.32;;;;;;;;;;5148892;27;20062;-53
2022/05/30 21:10:15;;;;;;;16.02;8.50;;;;;;;;;;5149243;27;20039;-53
2022/05/30 21:12:43;;;;;;;17.83;8.43;;;;;;;;;;5149139;27;20139;-51
2022/05/30 21:15:14;;;;;;;18.60;8.55;;;;;;;;;;5149294;27;20073;-49
2022/05/30 21:18:06;;;;;;;17.38;8.07;;;;;;;;;;5150275;27;20062;-52
2022/05/30 21:20:37;;;;;;;14.60;8.20;;;;;;;;;;5150574;27;20443;-50
2022/05/30 21:23:09;;;;;;;19.50;9.50;;;;;;;;;;5150010;27;20050;-52
2022/05/30 21:25:40;;;;;;;15.77;8.23;;;;;;;;;;5150313;27;20046;-53
2022/05/30 21:28:08;;;;;;;22.40;9.82;;;;;;;;;;5149937;27;20039;-49
2022/05/30 21:30:40;;;;;;;18.52;8.95;;;;;;;;;;5150064;27;20046;-50
2022/05/30 21:33:10;;;;;;;12.80;6.85;;;;;;;;;;5149676;27;20667;-49
2022/05/30 21:35:37;;;;;;;17.52;9.35;;;;;;;;;;5149823;27;20273;-48
2022/05/30 21:38:04;;;;;;;16.27;9.25;;;;;;;;;;5149805;27;20035;-51
2022/05/30 21:40:33;;;;;;;15.90;8.23;;;;;;;;;;5149862;27;20406;-50
2022/05/30 21:43:00;;;;;;;15.02;8.68;;;;;;;;;;5149595;27;20544;-48
2022/05/30 21:45:29;;;;;;;13.27;7.40;;;;;;;;;;5150010;27;20039;-50
2022/05/30 21:47:58;;;;;;;17.92;7.85;;;;;;;;;;5149450;27;20099;-49
2022/05/30 21:50:30;;;;;;;14.68;8.13;;;;;;;;;;5149062;27;20034;-49
2022/05/30 21:53:00;;;;;;;14.63;8.18;;;;;;;;;;5149002;27;20063;-53
2022/05/30 21:55:28;;;;;;;17.02;8.52;;;;;;;;;;5148960;27;20043;-53
2022/05/30 21:57:57;;;;;;;18.58;9.23;;;;;;;;;;5149297;27;20140;-50
2022/05/30 22:00:30;;;;;;;19.02;9.23;;;;;;;;;;5149004;27;20053;-48
2022/05/30 22:03:03;;;;;;;17.38;8.13;;;;;;;;;;5149305;27;20051;-49
2022/05/30 22:05:33;;;;;;;17.42;8.95;;;;;;;;;;5149199;27;20034;-50
2022/05/30 22:08:03;;;;;;;18.17;9.27;;;;;;;;;;5148992;27;20042;-48
2022/05/30 22:10:31;;;;;;;18.88;8.73;;;;;;;;;;5148922;27;20169;-48
2022/05/30 22:12:59;;;;;;;20.60;9.15;;;;;;;;;;5148517;27;20031;-49
2022/05/30 22:15:26;;;;;;;16.90;10.57;;;;;;;;;;5148403;27;20058;-50
2022/05/30 22:17:54;;;;;;;19.73;9.02;;;;;;;;;;5148859;27;20095;-52
2022/05/30 22:20:24;;;;;;;18.60;9.02;;;;;;;;;;5148807;27;20038;-51
2022/05/30 22:22:52;;;;;;;15.75;9.57;;;;;;;;;;5148411;27;20065;-48
2022/05/30 22:25:23;;;;;;;18.90;9.77;;;;;;;;;;5130171;27;20493;-50
2022/05/30 22:27:50;;;;;;;18.40;10.07;;;;;;;;;;5148621;27;20039;-52
2022/05/30 22:30:20;;;;;;;20.30;11.07;;;;;;;;;;5148567;27;20043;-49
2022/05/30 22:32:48;;;;;;;19.20;8.98;;;;;;;;;;5148677;27;20042;-49
2022/05/30 22:35:17;;;;;;;18.00;9.90;;;;;;;;;;5148931;27;20068;-48
2022/05/30 22:37:45;;;;;;;18.17;10.57;;;;;;;;;;5149249;27;20122;-52
2022/05/30 22:40:16;;;;;;;20.33;9.65;;;;;;;;;;5148819;27;20045;-51
2022/05/30 22:42:44;;;;;;;20.55;10.55;;;;;;;;;;5148770;27;20035;-51
2022/05/30 22:45:14;;;;;;;24.02;12.35;;;;;;;;;;5149100;27;20066;-50
2022/05/30 22:47:41;;;;;;;15.93;10.35;;;;;;;;;;5148531;27;20039;-50
2022/05/30 22:50:12;;;;;;;19.52;10.82;;;;;;;;;;5148677;27;20082;-52
2022/05/30 22:52:41;;;;;;;17.67;10.13;;;;;;;;;;5148533;27;20046;-49
2022/05/30 22:55:12;;;;;;;20.83;11.57;;;;;;;;;;5148498;27;20065;-53
2022/05/30 22:57:40;;;;;;;20.33;11.13;;;;;;;;;;5148888;27;20035;-49
2022/05/30 23:00:18;;;;;;;19.45;9.93;;;;;;;;;;5148555;27;20079;-49
2022/05/30 23:02:45;;;;;;;16.55;10.63;;;;;;;;;;5148482;27;20043;-49
2022/05/30 23:05:15;;;;;;;20.42;11.10;;;;;;;;;;5148414;27;20045;-53
2022/05/30 23:07:42;;;;;;;19.92;11.18;;;;;;;;;;5148738;27;20046;-52
2022/05/30 23:10:10;;;;;;;17.95;11.02;;;;;;;;;;5148433;27;20043;-51
2022/05/30 23:12:39;;;;;;;21.67;11.98;;;;;;;;;;5148124;27;20074;-51
2022/05/30 23:15:08;;;;;;;23.23;11.77;;;;;;;;;;5148147;27;20049;-49
2022/05/30 23:17:36;;;;;;;24.70;13.05;;;;;;;;;;5148411;27;20042;-50
2022/05/30 23:20:09;;;;;;;22.13;11.98;;;;;;;;;;5148558;27;20079;-49
2022/05/30 23:22:38;;;;;;;19.73;11.55;;;;;;;;;;5147893;27;20078;-50
2022/05/30 23:25:08;;;;;;;23.95;11.88;;;;;;;;;;5129420;27;20125;-49
2022/05/30 23:27:36;;;;;;;20.35;10.77;;;;;;;;;;5148986;27;20038;-51
2022/05/30 23:30:04;;;;;;;22.40;12.30;;;;;;;;;;5151922;27;20034;-50
2022/05/30 23:32:32;;;;;;;18.90;11.55;;;;;;;;;;5152023;27;20383;-50
2022/05/30 23:34:59;;;;;;;20.73;11.57;;;;;;;;;;5151857;27;20042;-48
2022/05/30 23:37:26;;;;;;;18.45;11.75;;;;;;;;;;5151965;27;20049;-53
2022/05/30 23:39:53;;;;;;;25.92;13.15;;;;;;;;;;5151926;27;20042;-48
2022/05/30 23:45:07;;;;;;;23.58;11.18;;;;;;;;;;5151906;27;20038;-49
2022/05/30 23:47:35;;;;;;;18.08;10.85;;;;;;;;;;5151526;27;20038;-50
2022/05/30 23:50:03;;;;;;;20.80;12.50;;;;;;;;;;5151559;27;20497;-49
2022/05/30 23:52:31;;;;;;;21.70;12.45;;;;;;;;;;5151471;27;20035;-47
2022/05/30 23:54:58;;;;;;;19.02;11.32;;;;;;;;;;5151513;27;20046;-51
2022/05/30 23:57:26;;;;;;;21.90;12.55;;;;;;;;;;5151556;27;20095;-51
2022/05/30 23:59:53;;;;;;;19.13;12.20;;;;;;;;;;5151401;27;20035;-50
